sensor_id;sensor_type;location;lat;lon;timestamp;P1;durP1;ratioP1;P2;durP2;ratioP2
2912;SDS011;1466;48.778;9.166;2023-04-30T00:00:48;27.03;;;9.87;;
2912;SDS011;1466;48.778;9.166;2023-04-30T00:03:13;25.53;;;9.57;;
2912;SDS011;1466;48.778;9.166;2023-04-30T00:05:39;22.93;;;9.83;;
2912;SDS011;1466;48.778;9.166;2023-04-30T00:08:04;32.23;;;10.37;;
2912;SDS011;1466;48.778;9.166;2023-04-30T00:10:30;29.33;;;9.30;;
2912;SDS011;1466;48.778;9.166;2023-04-30T00:12:56;31.63;;;10.93;;
2912;SDS011;1466;48.778;9.166;2023-04-30T00:15:21;29.90;;;10.43;;
2912;SDS011;1466;48.778;9.166;2023-04-30T00:17:47;39.07;;;11.03;;
2912;SDS011;1466;48.778;9.166;2023-04-30T00:20:12;18.93;;;9.23;;
2912;SDS011;1466;48.778;9.166;2023-04-30T00:22:39;26.60;;;9.15;;
2912;SDS011;1466;48.778;9.166;2023-04-30T00:25:04;27.53;;;9.97;;
2912;SDS011;1466;48.778;9.166;2023-04-30T00:27:30;25.00;;;9.70;;
2912;SDS011;1466;48.778;9.166;2023-04-30T00:29:56;23.63;;;8.70;;
2912;SDS011;1466;48.778;9.166;2023-04-30T00:32:22;23.75;;;9.32;;
2912;SDS011;1466;48.778;9.166;2023-04-30T00:34:47;26.83;;;9.60;;
2912;SDS011;1466;48.778;9.166;2023-04-30T00:37:13;27.83;;;10.37;;
2912;SDS011;1466;48.778;9.166;2023-04-30T00:39:39;23.70;;;9.80;;
2912;SDS011;1466;48.778;9.166;2023-04-30T00:42:04;23.97;;;8.60;;
2912;SDS011;1466;48.778;9.166;2023-04-30T00:44:30;28.67;;;10.20;;
2912;SDS011;1466;48.778;9.166;2023-04-30T00:46:55;30.87;;;11.20;;
2912;SDS011;1466;48.778;9.166;2023-04-30T00:49:21;31.20;;;10.57;;
2912;SDS011;1466;48.778;9.166;2023-04-30T00:51:47;29.70;;;9.77;;
2912;SDS011;1466;48.778;9.166;2023-04-30T00:54:14;27.45;;;9.52;;
2912;SDS011;1466;48.778;9.166;2023-04-30T00:56:41;28.58;;;10.80;;
2912;SDS011;1466;48.778;9.166;2023-04-30T00:59:06;33.23;;;10.97;;
2912;SDS011;1466;48.778;9.166;2023-04-30T01:01:33;27.88;;;10.68;;
2912;SDS011;1466;48.778;9.166;2023-04-30T01:03:58;28.33;;;9.27;;
2912;SDS011;1466;48.778;9.166;2023-04-30T01:06:25;29.45;;;11.18;;
2912;SDS011;1466;48.778;9.166;2023-04-30T01:08:50;28.65;;;10.90;;
2912;SDS011;1466;48.778;9.166;2023-04-30T01:11:21;31.58;;;11.60;;
2912;SDS011;1466;48.778;9.166;2023-04-30T01:16:35;32.60;;;11.45;;
2912;SDS011;1466;48.778;9.166;2023-04-30T01:21:51;28.25;;;10.30;;
2912;SDS011;1466;48.778;9.166;2023-04-30T01:24:31;31.75;;;10.52;;
2912;SDS011;1466;48.778;9.166;2023-04-30T01:29:55;30.60;;;11.25;;
2912;SDS011;1466;48.778;9.166;2023-04-30T01:32:23;26.88;;;10.70;;
2912;SDS011;1466;48.778;9.166;2023-04-30T01:34:48;30.83;;;11.20;;
2912;SDS011;1466;48.778;9.166;2023-04-30T01:48:02;49.28;;;13.32;;
2912;SDS011;1466;48.778;9.166;2023-04-30T01:50:53;37.03;;;13.10;;
2912;SDS011;1466;48.778;9.166;2023-04-30T01:53:34;37.38;;;12.02;;
2912;SDS011;1466;48.778;9.166;2023-04-30T01:56:08;26.65;;;10.88;;
2912;SDS011;1466;48.778;9.166;2023-04-30T01:58:36;29.52;;;10.80;;
2912;SDS011;1466;48.778;9.166;2023-04-30T02:01:03;32.58;;;12.45;;
2912;SDS011;1466;48.778;9.166;2023-04-30T02:03:29;27.30;;;11.17;;
2912;SDS011;1466;48.778;9.166;2023-04-30T02:05:56;30.75;;;10.93;;
2912;SDS011;1466;48.778;9.166;2023-04-30T02:08:23;32.15;;;11.80;;
2912;SDS011;1466;48.778;9.166;2023-04-30T02:10:48;28.80;;;10.50;;
2912;SDS011;1466;48.778;9.166;2023-04-30T02:13:14;32.67;;;11.37;;
2912;SDS011;1466;48.778;9.166;2023-04-30T02:15:39;32.47;;;12.43;;
2912;SDS011;1466;48.778;9.166;2023-04-30T02:18:05;39.83;;;13.13;;
2912;SDS011;1466;48.778;9.166;2023-04-30T02:20:31;30.57;;;11.50;;
2912;SDS011;1466;48.778;9.166;2023-04-30T02:22:56;27.30;;;11.10;;
2912;SDS011;1466;48.778;9.166;2023-04-30T02:25:22;32.60;;;11.53;;
2912;SDS011;1466;48.778;9.166;2023-04-30T02:27:47;30.60;;;12.80;;
2912;SDS011;1466;48.778;9.166;2023-04-30T02:30:14;30.77;;;11.35;;
2912;SDS011;1466;48.778;9.166;2023-04-30T02:32:40;31.57;;;11.70;;
2912;SDS011;1466;48.778;9.166;2023-04-30T02:35:05;30.07;;;11.50;;
2912;SDS011;1466;48.778;9.166;2023-04-30T02:37:31;33.60;;;11.80;;
2912;SDS011;1466;48.778;9.166;2023-04-30T02:39:57;33.50;;;12.13;;
2912;SDS011;1466;48.778;9.166;2023-04-30T02:42:22;27.20;;;11.50;;
2912;SDS011;1466;48.778;9.166;2023-04-30T02:44:48;34.53;;;13.27;;
2912;SDS011;1466;48.778;9.166;2023-04-30T02:47:13;27.00;;;11.40;;
2912;SDS011;1466;48.778;9.166;2023-04-30T02:49:39;31.30;;;13.23;;
2912;SDS011;1466;48.778;9.166;2023-04-30T02:52:05;37.40;;;13.63;;
2912;SDS011;1466;48.778;9.166;2023-04-30T02:54:33;29.65;;;12.48;;
2912;SDS011;1466;48.778;9.166;2023-04-30T02:56:59;32.10;;;12.50;;
2912;SDS011;1466;48.778;9.166;2023-04-30T02:59:24;27.67;;;11.63;;
2912;SDS011;1466;48.778;9.166;2023-04-30T03:01:51;34.92;;;13.15;;
2912;SDS011;1466;48.778;9.166;2023-04-30T03:04:16;51.00;;;15.20;;
2912;SDS011;1466;48.778;9.166;2023-04-30T03:06:42;26.27;;;11.90;;
2912;SDS011;1466;48.778;9.166;2023-04-30T03:09:07;39.17;;;13.53;;
2912;SDS011;1466;48.778;9.166;2023-04-30T03:11:33;29.20;;;12.70;;
2912;SDS011;1466;48.778;9.166;2023-04-30T03:14:01;30.48;;;12.05;;
2912;SDS011;1466;48.778;9.166;2023-04-30T03:16:27;36.73;;;13.10;;
2912;SDS011;1466;48.778;9.166;2023-04-30T03:18:54;33.85;;;12.43;;
2912;SDS011;1466;48.778;9.166;2023-04-30T03:21:20;34.97;;;12.87;;
2912;SDS011;1466;48.778;9.166;2023-04-30T03:23:45;29.80;;;12.37;;
2912;SDS011;1466;48.778;9.166;2023-04-30T03:26:11;31.17;;;11.63;;
2912;SDS011;1466;48.778;9.166;2023-04-30T03:28:37;30.57;;;12.07;;
2912;SDS011;1466;48.778;9.166;2023-04-30T03:31:02;29.90;;;11.67;;
2912;SDS011;1466;48.778;9.166;2023-04-30T03:33:31;33.67;;;12.30;;
2912;SDS011;1466;48.778;9.166;2023-04-30T03:35:57;34.63;;;13.23;;
2912;SDS011;1466;48.778;9.166;2023-04-30T03:38:22;31.00;;;12.67;;
2912;SDS011;1466;48.778;9.166;2023-04-30T03:40:48;42.10;;;13.20;;
2912;SDS011;1466;48.778;9.166;2023-04-30T03:43:13;29.47;;;11.93;;
2912;SDS011;1466;48.778;9.166;2023-04-30T03:45:39;33.80;;;12.70;;
2912;SDS011;1466;48.778;9.166;2023-04-30T03:48:05;39.77;;;14.00;;
2912;SDS011;1466;48.778;9.166;2023-04-30T03:50:30;30.10;;;12.80;;
2912;SDS011;1466;48.778;9.166;2023-04-30T03:52:56;28.93;;;12.70;;
2912;SDS011;1466;48.778;9.166;2023-04-30T03:55:21;33.77;;;12.90;;
2912;SDS011;1466;48.778;9.166;2023-04-30T03:57:47;48.50;;;15.33;;
2912;SDS011;1466;48.778;9.166;2023-04-30T04:00:13;30.33;;;12.50;;
2912;SDS011;1466;48.778;9.166;2023-04-30T04:02:39;29.48;;;13.85;;
2912;SDS011;1466;48.778;9.166;2023-04-30T04:05:05;32.87;;;14.47;;
2912;SDS011;1466;48.778;9.166;2023-04-30T04:07:31;35.63;;;13.87;;
2912;SDS011;1466;48.778;9.166;2023-04-30T04:09:56;39.67;;;14.80;;
2912;SDS011;1466;48.778;9.166;2023-04-30T04:12:22;30.87;;;13.17;;
2912;SDS011;1466;48.778;9.166;2023-04-30T04:14:47;31.40;;;12.83;;
2912;SDS011;1466;48.778;9.166;2023-04-30T04:17:13;35.97;;;14.30;;
2912;SDS011;1466;48.778;9.166;2023-04-30T04:19:39;29.20;;;13.53;;
2912;SDS011;1466;48.778;9.166;2023-04-30T04:22:05;35.53;;;13.93;;
2912;SDS011;1466;48.778;9.166;2023-04-30T04:24:30;33.90;;;12.60;;
2912;SDS011;1466;48.778;9.166;2023-04-30T04:26:57;34.97;;;13.60;;
2912;SDS011;1466;48.778;9.166;2023-04-30T04:29:23;32.30;;;12.82;;
2912;SDS011;1466;48.778;9.166;2023-04-30T04:31:49;24.37;;;11.27;;
2912;SDS011;1466;48.778;9.166;2023-04-30T04:34:15;29.90;;;12.60;;
2912;SDS011;1466;48.778;9.166;2023-04-30T04:36:41;57.38;;;11.55;;
2912;SDS011;1466;48.778;9.166;2023-04-30T04:39:07;36.43;;;13.80;;
2912;SDS011;1466;48.778;9.166;2023-04-30T04:41:33;26.33;;;13.00;;
2912;SDS011;1466;48.778;9.166;2023-04-30T04:44:02;28.58;;;12.60;;
2912;SDS011;1466;48.778;9.166;2023-04-30T04:46:29;36.63;;;14.63;;
2912;SDS011;1466;48.778;9.166;2023-04-30T04:48:55;26.10;;;11.57;;
2912;SDS011;1466;48.778;9.166;2023-04-30T04:51:24;38.58;;;12.23;;
2912;SDS011;1466;48.778;9.166;2023-04-30T04:53:50;32.90;;;12.60;;
2912;SDS011;1466;48.778;9.166;2023-04-30T04:56:16;33.70;;;13.27;;
2912;SDS011;1466;48.778;9.166;2023-04-30T04:58:42;24.40;;;11.63;;
2912;SDS011;1466;48.778;9.166;2023-04-30T05:01:08;27.73;;;11.50;;
2912;SDS011;1466;48.778;9.166;2023-04-30T05:03:34;27.20;;;10.50;;
2912;SDS011;1466;48.778;9.166;2023-04-30T05:06:03;23.70;;;10.63;;
2912;SDS011;1466;48.778;9.166;2023-04-30T05:08:30;35.58;;;12.73;;
2912;SDS011;1466;48.778;9.166;2023-04-30T05:10:55;41.90;;;13.60;;
2912;SDS011;1466;48.778;9.166;2023-04-30T05:13:21;29.63;;;11.50;;
2912;SDS011;1466;48.778;9.166;2023-04-30T05:15:49;23.10;;;11.23;;
2912;SDS011;1466;48.778;9.166;2023-04-30T05:18:15;31.75;;;12.50;;
2912;SDS011;1466;48.778;9.166;2023-04-30T05:20:41;36.73;;;12.80;;
2912;SDS011;1466;48.778;9.166;2023-04-30T05:23:06;31.10;;;12.17;;
2912;SDS011;1466;48.778;9.166;2023-04-30T05:25:32;22.27;;;10.53;;
2912;SDS011;1466;48.778;9.166;2023-04-30T05:27:59;39.55;;;12.23;;
2912;SDS011;1466;48.778;9.166;2023-04-30T05:30:24;24.40;;;10.77;;
2912;SDS011;1466;48.778;9.166;2023-04-30T05:32:50;23.30;;;11.30;;
2912;SDS011;1466;48.778;9.166;2023-04-30T05:35:16;31.07;;;11.53;;
2912;SDS011;1466;48.778;9.166;2023-04-30T05:37:42;28.27;;;11.52;;
2912;SDS011;1466;48.778;9.166;2023-04-30T05:40:08;24.30;;;10.40;;
2912;SDS011;1466;48.778;9.166;2023-04-30T05:42:34;21.55;;;10.35;;
2912;SDS011;1466;48.778;9.166;2023-04-30T05:45:00;25.67;;;11.53;;
2912;SDS011;1466;48.778;9.166;2023-04-30T05:47:26;28.30;;;12.10;;
2912;SDS011;1466;48.778;9.166;2023-04-30T05:49:52;24.23;;;10.27;;
2912;SDS011;1466;48.778;9.166;2023-04-30T05:52:18;24.90;;;10.73;;
2912;SDS011;1466;48.778;9.166;2023-04-30T05:54:43;29.60;;;12.17;;
2912;SDS011;1466;48.778;9.166;2023-04-30T05:57:09;23.87;;;10.00;;
2912;SDS011;1466;48.778;9.166;2023-04-30T05:59:34;23.73;;;10.20;;
2912;SDS011;1466;48.778;9.166;2023-04-30T06:02:00;23.83;;;10.60;;
2912;SDS011;1466;48.778;9.166;2023-04-30T06:04:26;32.33;;;13.10;;
2912;SDS011;1466;48.778;9.166;2023-04-30T06:06:52;19.50;;;10.80;;
2912;SDS011;1466;48.778;9.166;2023-04-30T06:09:17;31.50;;;13.07;;
2912;SDS011;1466;48.778;9.166;2023-04-30T06:11:43;32.50;;;12.90;;
2912;SDS011;1466;48.778;9.166;2023-04-30T06:14:09;26.08;;;11.20;;
2912;SDS011;1466;48.778;9.166;2023-04-30T06:16:35;41.30;;;13.73;;
2912;SDS011;1466;48.778;9.166;2023-04-30T06:19:01;31.00;;;12.75;;
2912;SDS011;1466;48.778;9.166;2023-04-30T06:21:27;24.23;;;10.73;;
2912;SDS011;1466;48.778;9.166;2023-04-30T06:23:52;53.73;;;15.47;;
2912;SDS011;1466;48.778;9.166;2023-04-30T06:26:18;22.03;;;11.03;;
2912;SDS011;1466;48.778;9.166;2023-04-30T06:28:44;26.50;;;10.30;;
2912;SDS011;1466;48.778;9.166;2023-04-30T06:31:10;20.75;;;10.40;;
2912;SDS011;1466;48.778;9.166;2023-04-30T06:33:36;28.30;;;10.27;;
2912;SDS011;1466;48.778;9.166;2023-04-30T06:36:02;25.33;;;11.33;;
2912;SDS011;1466;48.778;9.166;2023-04-30T06:38:28;27.02;;;11.50;;
2912;SDS011;1466;48.778;9.166;2023-04-30T06:40:53;20.93;;;10.70;;
2912;SDS011;1466;48.778;9.166;2023-04-30T06:43:20;22.00;;;8.83;;
2912;SDS011;1466;48.778;9.166;2023-04-30T06:45:45;30.85;;;11.13;;
2912;SDS011;1466;48.778;9.166;2023-04-30T06:48:11;25.13;;;10.80;;
2912;SDS011;1466;48.778;9.166;2023-04-30T06:50:37;24.10;;;10.60;;
2912;SDS011;1466;48.778;9.166;2023-04-30T06:53:09;22.27;;;10.00;;
2912;SDS011;1466;48.778;9.166;2023-04-30T06:55:35;60.72;;;14.75;;
2912;SDS011;1466;48.778;9.166;2023-04-30T06:58:01;30.20;;;11.40;;
2912;SDS011;1466;48.778;9.166;2023-04-30T07:00:27;20.97;;;8.93;;
2912;SDS011;1466;48.778;9.166;2023-04-30T07:02:52;29.07;;;11.03;;
2912;SDS011;1466;48.778;9.166;2023-04-30T07:05:18;20.80;;;10.27;;
2912;SDS011;1466;48.778;9.166;2023-04-30T07:07:44;20.83;;;9.27;;
2912;SDS011;1466;48.778;9.166;2023-04-30T07:10:10;38.90;;;12.27;;
2912;SDS011;1466;48.778;9.166;2023-04-30T07:12:36;26.50;;;9.77;;
2912;SDS011;1466;48.778;9.166;2023-04-30T07:15:02;18.67;;;9.00;;
2912;SDS011;1466;48.778;9.166;2023-04-30T07:17:28;22.70;;;9.97;;
2912;SDS011;1466;48.778;9.166;2023-04-30T07:19:56;18.40;;;10.27;;
2912;SDS011;1466;48.778;9.166;2023-04-30T07:22:22;34.77;;;11.77;;
2912;SDS011;1466;48.778;9.166;2023-04-30T07:24:47;15.50;;;6.93;;
2912;SDS011;1466;48.778;9.166;2023-04-30T07:27:13;27.80;;;11.10;;
2912;SDS011;1466;48.778;9.166;2023-04-30T07:29:39;25.47;;;9.53;;
2912;SDS011;1466;48.778;9.166;2023-04-30T07:32:04;20.57;;;7.80;;
2912;SDS011;1466;48.778;9.166;2023-04-30T07:34:30;22.33;;;11.53;;
2912;SDS011;1466;48.778;9.166;2023-04-30T07:36:56;19.63;;;8.30;;
2912;SDS011;1466;48.778;9.166;2023-04-30T07:39:21;20.03;;;10.53;;
2912;SDS011;1466;48.778;9.166;2023-04-30T07:41:47;14.80;;;8.03;;
2912;SDS011;1466;48.778;9.166;2023-04-30T07:44:13;27.00;;;10.17;;
2912;SDS011;1466;48.778;9.166;2023-04-30T07:46:38;21.20;;;9.30;;
2912;SDS011;1466;48.778;9.166;2023-04-30T07:49:04;24.90;;;10.03;;
2912;SDS011;1466;48.778;9.166;2023-04-30T07:51:29;20.40;;;9.53;;
2912;SDS011;1466;48.778;9.166;2023-04-30T07:53:56;23.45;;;8.80;;
2912;SDS011;1466;48.778;9.166;2023-04-30T07:56:22;16.37;;;7.80;;
2912;SDS011;1466;48.778;9.166;2023-04-30T07:58:48;31.77;;;9.93;;
2912;SDS011;1466;48.778;9.166;2023-04-30T08:01:14;24.20;;;9.77;;
2912;SDS011;1466;48.778;9.166;2023-04-30T08:03:39;29.97;;;9.73;;
2912;SDS011;1466;48.778;9.166;2023-04-30T08:06:05;29.80;;;10.23;;
2912;SDS011;1466;48.778;9.166;2023-04-30T08:08:31;20.90;;;8.00;;
2912;SDS011;1466;48.778;9.166;2023-04-30T08:10:57;20.07;;;9.23;;
2912;SDS011;1466;48.778;9.166;2023-04-30T08:13:23;29.20;;;7.60;;
2912;SDS011;1466;48.778;9.166;2023-04-30T08:15:48;26.50;;;9.73;;
2912;SDS011;1466;48.778;9.166;2023-04-30T08:18:14;26.53;;;9.37;;
2912;SDS011;1466;48.778;9.166;2023-04-30T08:20:40;10.73;;;5.77;;
2912;SDS011;1466;48.778;9.166;2023-04-30T08:23:06;17.40;;;6.97;;
2912;SDS011;1466;48.778;9.166;2023-04-30T08:25:31;26.80;;;8.50;;
2912;SDS011;1466;48.778;9.166;2023-04-30T08:27:57;35.50;;;10.77;;
2912;SDS011;1466;48.778;9.166;2023-04-30T08:30:22;20.87;;;8.03;;
2912;SDS011;1466;48.778;9.166;2023-04-30T08:32:48;25.45;;;9.90;;
2912;SDS011;1466;48.778;9.166;2023-04-30T08:35:14;13.13;;;7.80;;
2912;SDS011;1466;48.778;9.166;2023-04-30T08:37:43;25.67;;;7.03;;
2912;SDS011;1466;48.778;9.166;2023-04-30T08:40:09;27.17;;;8.77;;
2912;SDS011;1466;48.778;9.166;2023-04-30T08:42:36;21.67;;;7.80;;
2912;SDS011;1466;48.778;9.166;2023-04-30T08:45:07;22.33;;;6.60;;
2912;SDS011;1466;48.778;9.166;2023-04-30T08:47:35;17.95;;;7.20;;
2912;SDS011;1466;48.778;9.166;2023-04-30T08:50:02;17.00;;;6.95;;
2912;SDS011;1466;48.778;9.166;2023-04-30T08:52:28;17.75;;;7.03;;
2912;SDS011;1466;48.778;9.166;2023-04-30T08:54:56;23.05;;;7.28;;
2912;SDS011;1466;48.778;9.166;2023-04-30T08:57:25;16.88;;;6.63;;
2912;SDS011;1466;48.778;9.166;2023-04-30T08:59:52;11.10;;;4.83;;
2912;SDS011;1466;48.778;9.166;2023-04-30T09:02:18;15.60;;;6.03;;
2912;SDS011;1466;48.778;9.166;2023-04-30T09:04:44;13.63;;;6.73;;
2912;SDS011;1466;48.778;9.166;2023-04-30T09:07:11;12.65;;;5.78;;
2912;SDS011;1466;48.778;9.166;2023-04-30T09:09:38;16.63;;;6.22;;
2912;SDS011;1466;48.778;9.166;2023-04-30T09:12:11;15.32;;;6.30;;
2912;SDS011;1466;48.778;9.166;2023-04-30T09:15:03;13.00;;;5.97;;
2912;SDS011;1466;48.778;9.166;2023-04-30T09:17:30;18.98;;;6.35;;
2912;SDS011;1466;48.778;9.166;2023-04-30T09:20:06;21.65;;;6.85;;
2912;SDS011;1466;48.778;9.166;2023-04-30T09:22:37;25.00;;;7.45;;
2912;SDS011;1466;48.778;9.166;2023-04-30T09:25:05;14.10;;;6.03;;
2912;SDS011;1466;48.778;9.166;2023-04-30T09:27:31;20.08;;;7.00;;
2912;SDS011;1466;48.778;9.166;2023-04-30T09:29:57;18.97;;;7.00;;
2912;SDS011;1466;48.778;9.166;2023-04-30T09:32:23;15.27;;;7.00;;
2912;SDS011;1466;48.778;9.166;2023-04-30T09:34:49;19.83;;;6.77;;
2912;SDS011;1466;48.778;9.166;2023-04-30T09:37:14;16.33;;;6.47;;
2912;SDS011;1466;48.778;9.166;2023-04-30T09:42:16;14.65;;;5.82;;
2912;SDS011;1466;48.778;9.166;2023-04-30T09:44:43;20.80;;;6.95;;
2912;SDS011;1466;48.778;9.166;2023-04-30T09:47:18;21.43;;;7.70;;
2912;SDS011;1466;48.778;9.166;2023-04-30T09:49:48;19.23;;;6.95;;
2912;SDS011;1466;48.778;9.166;2023-04-30T09:52:17;15.63;;;6.43;;
2912;SDS011;1466;48.778;9.166;2023-04-30T09:54:44;14.88;;;6.38;;
2912;SDS011;1466;48.778;9.166;2023-04-30T09:57:11;15.32;;;6.20;;
2912;SDS011;1466;48.778;9.166;2023-04-30T09:59:42;12.05;;;5.10;;
2912;SDS011;1466;48.778;9.166;2023-04-30T10:02:09;21.60;;;7.03;;
2912;SDS011;1466;48.778;9.166;2023-04-30T10:04:38;16.75;;;6.15;;
2912;SDS011;1466;48.778;9.166;2023-04-30T10:07:13;16.85;;;5.85;;
2912;SDS011;1466;48.778;9.166;2023-04-30T10:09:50;28.05;;;8.43;;
2912;SDS011;1466;48.778;9.166;2023-04-30T10:12:25;12.93;;;5.60;;
2912;SDS011;1466;48.778;9.166;2023-04-30T10:15:00;12.52;;;5.80;;
2912;SDS011;1466;48.778;9.166;2023-04-30T10:17:37;19.80;;;6.95;;
2912;SDS011;1466;48.778;9.166;2023-04-30T10:20:08;14.02;;;6.07;;
2912;SDS011;1466;48.778;9.166;2023-04-30T10:22:34;23.13;;;7.93;;
2912;SDS011;1466;48.778;9.166;2023-04-30T10:25:01;13.30;;;5.40;;
2912;SDS011;1466;48.778;9.166;2023-04-30T10:27:27;17.77;;;6.35;;
2912;SDS011;1466;48.778;9.166;2023-04-30T10:29:54;9.10;;;4.45;;
2912;SDS011;1466;48.778;9.166;2023-04-30T10:32:21;12.02;;;5.63;;
2912;SDS011;1466;48.778;9.166;2023-04-30T10:37:54;19.20;;;6.55;;
2912;SDS011;1466;48.778;9.166;2023-04-30T10:40:35;11.60;;;5.43;;
2912;SDS011;1466;48.778;9.166;2023-04-30T10:43:01;18.63;;;6.60;;
2912;SDS011;1466;48.778;9.166;2023-04-30T10:45:33;20.00;;;7.23;;
2912;SDS011;1466;48.778;9.166;2023-04-30T10:48:01;25.25;;;8.20;;
2912;SDS011;1466;48.778;9.166;2023-04-30T10:50:28;37.53;;;10.10;;
2912;SDS011;1466;48.778;9.166;2023-04-30T10:53:04;19.42;;;7.00;;
2912;SDS011;1466;48.778;9.166;2023-04-30T10:55:31;16.25;;;6.85;;
2912;SDS011;1466;48.778;9.166;2023-04-30T10:57:57;29.95;;;8.10;;
2912;SDS011;1466;48.778;9.166;2023-04-30T11:00:24;14.10;;;6.40;;
2912;SDS011;1466;48.778;9.166;2023-04-30T11:02:54;12.50;;;5.97;;
2912;SDS011;1466;48.778;9.166;2023-04-30T11:05:22;10.63;;;6.13;;
2912;SDS011;1466;48.778;9.166;2023-04-30T11:07:59;19.55;;;7.00;;
2912;SDS011;1466;48.778;9.166;2023-04-30T11:10:27;12.10;;;6.97;;
2912;SDS011;1466;48.778;9.166;2023-04-30T11:12:56;12.57;;;6.40;;
2912;SDS011;1466;48.778;9.166;2023-04-30T11:15:25;11.83;;;7.20;;
2912;SDS011;1466;48.778;9.166;2023-04-30T11:17:56;18.58;;;7.20;;
2912;SDS011;1466;48.778;9.166;2023-04-30T11:20:23;14.30;;;5.90;;
2912;SDS011;1466;48.778;9.166;2023-04-30T11:25:42;22.58;;;7.93;;
2912;SDS011;1466;48.778;9.166;2023-04-30T11:28:15;14.52;;;7.15;;
2912;SDS011;1466;48.778;9.166;2023-04-30T11:33:27;15.60;;;6.95;;
2912;SDS011;1466;48.778;9.166;2023-04-30T11:35:54;17.33;;;7.53;;
2912;SDS011;1466;48.778;9.166;2023-04-30T11:38:28;9.65;;;5.00;;
2912;SDS011;1466;48.778;9.166;2023-04-30T11:41:03;22.00;;;7.28;;
2912;SDS011;1466;48.778;9.166;2023-04-30T11:43:30;14.02;;;5.97;;
2912;SDS011;1466;48.778;9.166;2023-04-30T11:46:00;13.55;;;6.22;;
2912;SDS011;1466;48.778;9.166;2023-04-30T11:48:29;26.27;;;8.85;;
2912;SDS011;1466;48.778;9.166;2023-04-30T11:50:59;14.68;;;6.65;;
2912;SDS011;1466;48.778;9.166;2023-04-30T11:53:27;17.35;;;6.25;;
2912;SDS011;1466;48.778;9.166;2023-04-30T11:55:53;20.50;;;7.97;;
2912;SDS011;1466;48.778;9.166;2023-04-30T11:58:19;17.35;;;7.15;;
2912;SDS011;1466;48.778;9.166;2023-04-30T12:00:46;18.10;;;7.00;;
2912;SDS011;1466;48.778;9.166;2023-04-30T12:03:13;15.77;;;7.17;;
2912;SDS011;1466;48.778;9.166;2023-04-30T12:05:39;15.52;;;6.35;;
2912;SDS011;1466;48.778;9.166;2023-04-30T12:08:06;16.70;;;7.03;;
2912;SDS011;1466;48.778;9.166;2023-04-30T12:10:33;15.38;;;6.82;;
2912;SDS011;1466;48.778;9.166;2023-04-30T12:13:02;18.92;;;7.25;;
2912;SDS011;1466;48.778;9.166;2023-04-30T12:15:28;17.50;;;7.60;;
2912;SDS011;1466;48.778;9.166;2023-04-30T12:17:54;23.47;;;8.03;;
2912;SDS011;1466;48.778;9.166;2023-04-30T12:20:23;19.02;;;7.38;;
2912;SDS011;1466;48.778;9.166;2023-04-30T12:22:51;17.70;;;7.50;;
2912;SDS011;1466;48.778;9.166;2023-04-30T12:25:17;15.93;;;6.57;;
2912;SDS011;1466;48.778;9.166;2023-04-30T12:27:45;16.65;;;6.72;;
2912;SDS011;1466;48.778;9.166;2023-04-30T12:30:12;17.20;;;6.35;;
2912;SDS011;1466;48.778;9.166;2023-04-30T12:32:38;13.65;;;6.50;;
2912;SDS011;1466;48.778;9.166;2023-04-30T12:35:12;19.20;;;7.03;;
2912;SDS011;1466;48.778;9.166;2023-04-30T12:37:43;12.13;;;6.10;;
2912;SDS011;1466;48.778;9.166;2023-04-30T12:40:10;12.65;;;6.32;;
2912;SDS011;1466;48.778;9.166;2023-04-30T12:42:37;13.85;;;5.70;;
2912;SDS011;1466;48.778;9.166;2023-04-30T12:45:02;17.00;;;6.73;;
2912;SDS011;1466;48.778;9.166;2023-04-30T12:47:29;15.75;;;6.35;;
2912;SDS011;1466;48.778;9.166;2023-04-30T12:49:54;17.20;;;7.03;;
2912;SDS011;1466;48.778;9.166;2023-04-30T12:52:24;15.93;;;6.60;;
2912;SDS011;1466;48.778;9.166;2023-04-30T12:54:51;11.65;;;5.75;;
2912;SDS011;1466;48.778;9.166;2023-04-30T12:57:18;18.75;;;7.28;;
2912;SDS011;1466;48.778;9.166;2023-04-30T13:02:24;17.63;;;6.68;;
2912;SDS011;1466;48.778;9.166;2023-04-30T13:04:51;18.83;;;7.05;;
2912;SDS011;1466;48.778;9.166;2023-04-30T13:07:17;15.40;;;6.55;;
2912;SDS011;1466;48.778;9.166;2023-04-30T13:09:44;11.27;;;6.15;;
2912;SDS011;1466;48.778;9.166;2023-04-30T13:12:09;11.00;;;6.10;;
2912;SDS011;1466;48.778;9.166;2023-04-30T13:14:36;18.13;;;7.70;;
2912;SDS011;1466;48.778;9.166;2023-04-30T13:17:01;16.60;;;6.53;;
2912;SDS011;1466;48.778;9.166;2023-04-30T13:19:29;19.70;;;6.93;;
2912;SDS011;1466;48.778;9.166;2023-04-30T13:21:55;11.57;;;5.47;;
2912;SDS011;1466;48.778;9.166;2023-04-30T13:24:22;23.75;;;8.77;;
2912;SDS011;1466;48.778;9.166;2023-04-30T13:26:48;14.82;;;6.55;;
2912;SDS011;1466;48.778;9.166;2023-04-30T13:29:14;15.13;;;6.80;;
2912;SDS011;1466;48.778;9.166;2023-04-30T13:31:40;15.23;;;5.63;;
2912;SDS011;1466;48.778;9.166;2023-04-30T13:34:07;18.52;;;6.68;;
2912;SDS011;1466;48.778;9.166;2023-04-30T13:36:34;15.55;;;6.50;;
2912;SDS011;1466;48.778;9.166;2023-04-30T13:39:00;21.42;;;7.35;;
2912;SDS011;1466;48.778;9.166;2023-04-30T13:41:26;18.67;;;7.20;;
2912;SDS011;1466;48.778;9.166;2023-04-30T13:43:51;13.60;;;6.37;;
2912;SDS011;1466;48.778;9.166;2023-04-30T13:46:17;14.80;;;6.07;;
2912;SDS011;1466;48.778;9.166;2023-04-30T13:48:43;11.10;;;5.47;;
2912;SDS011;1466;48.778;9.166;2023-04-30T13:51:12;20.00;;;7.60;;
2912;SDS011;1466;48.778;9.166;2023-04-30T13:53:38;19.83;;;6.82;;
2912;SDS011;1466;48.778;9.166;2023-04-30T13:56:04;23.35;;;7.75;;
2912;SDS011;1466;48.778;9.166;2023-04-30T13:58:31;23.65;;;7.20;;
2912;SDS011;1466;48.778;9.166;2023-04-30T14:00:57;16.92;;;6.57;;
2912;SDS011;1466;48.778;9.166;2023-04-30T14:03:23;18.67;;;7.60;;
2912;SDS011;1466;48.778;9.166;2023-04-30T14:05:48;16.30;;;6.40;;
2912;SDS011;1466;48.778;9.166;2023-04-30T14:08:14;18.90;;;6.97;;
2912;SDS011;1466;48.778;9.166;2023-04-30T14:10:40;11.10;;;5.07;;
2912;SDS011;1466;48.778;9.166;2023-04-30T14:13:06;21.97;;;6.57;;
2912;SDS011;1466;48.778;9.166;2023-04-30T14:15:31;37.43;;;10.43;;
2912;SDS011;1466;48.778;9.166;2023-04-30T14:17:57;33.33;;;9.37;;
2912;SDS011;1466;48.778;9.166;2023-04-30T14:20:24;26.95;;;7.95;;
2912;SDS011;1466;48.778;9.166;2023-04-30T14:22:50;15.80;;;6.40;;
2912;SDS011;1466;48.778;9.166;2023-04-30T14:25:15;25.93;;;8.33;;
2912;SDS011;1466;48.778;9.166;2023-04-30T14:27:41;25.30;;;8.50;;
2912;SDS011;1466;48.778;9.166;2023-04-30T14:30:07;23.43;;;7.30;;
2912;SDS011;1466;48.778;9.166;2023-04-30T14:32:34;14.55;;;6.35;;
2912;SDS011;1466;48.778;9.166;2023-04-30T14:35:00;19.85;;;7.28;;
2912;SDS011;1466;48.778;9.166;2023-04-30T14:37:26;17.17;;;6.57;;
2912;SDS011;1466;48.778;9.166;2023-04-30T14:39:52;13.73;;;6.50;;
2912;SDS011;1466;48.778;9.166;2023-04-30T14:42:18;12.95;;;5.95;;
2912;SDS011;1466;48.778;9.166;2023-04-30T14:44:43;17.13;;;6.23;;
2912;SDS011;1466;48.778;9.166;2023-04-30T14:47:09;20.07;;;6.63;;
2912;SDS011;1466;48.778;9.166;2023-04-30T14:49:34;19.20;;;6.77;;
2912;SDS011;1466;48.778;9.166;2023-04-30T14:52:00;18.57;;;6.30;;
2912;SDS011;1466;48.778;9.166;2023-04-30T14:54:26;17.77;;;5.80;;
2912;SDS011;1466;48.778;9.166;2023-04-30T14:56:51;24.50;;;7.40;;
2912;SDS011;1466;48.778;9.166;2023-04-30T14:59:17;13.27;;;5.73;;
2912;SDS011;1466;48.778;9.166;2023-04-30T15:01:42;10.87;;;5.47;;
2912;SDS011;1466;48.778;9.166;2023-04-30T15:04:08;18.63;;;7.23;;
2912;SDS011;1466;48.778;9.166;2023-04-30T15:06:34;26.60;;;7.87;;
2912;SDS011;1466;48.778;9.166;2023-04-30T15:08:59;14.37;;;7.30;;
2912;SDS011;1466;48.778;9.166;2023-04-30T15:11:25;15.03;;;5.67;;
2912;SDS011;1466;48.778;9.166;2023-04-30T15:13:52;15.20;;;5.60;;
2912;SDS011;1466;48.778;9.166;2023-04-30T15:16:19;17.48;;;6.05;;
2912;SDS011;1466;48.778;9.166;2023-04-30T15:18:44;15.80;;;6.30;;
2912;SDS011;1466;48.778;9.166;2023-04-30T15:21:10;14.43;;;5.82;;
2912;SDS011;1466;48.778;9.166;2023-04-30T15:23:36;14.03;;;5.30;;
2912;SDS011;1466;48.778;9.166;2023-04-30T15:26:02;17.73;;;5.80;;